Time;durP1;ratioP1;P1;durP2;ratioP2;P2;SDS_P1;SDS_P2;PMS_P1;PMS_P2;Temp;Humidity;BMP_temperature;BMP_pressure;BME280_temperature;BME280_humidity;BME280_pressure;Samples;Min_cycle;Max_cycle;Signal;HPM_P1;HPM_P2
2022/03/04 00:02:58;;;;;;;;;48.00;39.25;;;;;13.25;60.48;100905.97;5054106;28;45642;-85
2022/03/04 00:05:24;;;;;;;;;50.25;39.50;;;;;13.24;60.26;100911.34;5055143;28;45573;-83
2022/03/04 00:07:50;;;;;;;;;53.25;40.00;;;;;13.27;59.98;100911.13;5054512;28;45738;-84
2022/03/04 00:10:15;;;;;;;;;51.50;38.00;;;;;13.21;60.15;100904.53;5055375;28;45580;-79
2022/03/04 00:12:40;;;;;;;;;47.50;38.25;;;;;13.26;60.14;100914.72;5055108;28;45672;-83
2022/03/04 00:18:27;;;;;;;;;49.75;40.50;;;;;13.32;59.79;100908.97;5074204;28;45997;-81
2022/03/04 00:20:53;;;;;;;;;48.25;38.00;;;;;13.31;60.25;100894.13;5082530;28;46438;-85
2022/03/04 00:23:19;;;;;;;;;48.50;39.50;;;;;13.36;60.11;100898.09;5078104;28;45697;-78
2022/03/04 00:25:45;;;;;;;;;44.75;38.25;;;;;13.37;59.77;100901.56;5079537;28;45897;-84
2022/03/04 00:28:10;;;;;;;;;49.50;39.25;;;;;13.38;59.75;100904.06;5078503;28;46569;-81
2022/03/04 00:30:36;;;;;;;;;50.75;40.25;;;;;13.41;59.78;100910.88;5076480;28;45753;-87
2022/03/04 00:33:01;;;;;;;;;46.00;39.00;;;;;13.43;59.40;100909.81;5074722;28;45855;-81
2022/03/04 00:35:27;;;;;;;;;44.50;36.00;;;;;13.40;59.52;100899.50;5074816;28;46172;-85
2022/03/04 00:37:52;;;;;;;;;47.00;37.75;;;;;13.49;59.79;100897.97;5075232;28;45831;-85
2022/03/04 00:40:17;;;;;;;;;44.25;37.50;;;;;13.53;59.12;100901.19;5075326;28;46056;-80
2022/03/04 00:42:43;;;;;;;;;50.25;38.50;;;;;13.52;59.63;100899.50;5074755;28;45898;-84
2022/03/04 00:48:30;;;;;;;;;50.50;40.00;;;;;13.48;59.69;100901.56;5074598;28;45726;-83
2022/03/04 00:50:55;;;;;;;;;48.25;39.00;;;;;13.53;59.53;100906.47;5076472;28;45658;-85
2022/03/04 00:53:21;;;;;;;;;41.75;37.00;;;;;13.51;59.88;100896.03;5075647;28;45814;-86
2022/03/04 00:55:46;;;;;;;;;35.75;33.00;;;;;13.48;59.76;100892.81;5075156;28;45683;-83
2022/03/04 00:58:12;;;;;;;;;31.75;28.25;;;;;13.37;59.46;100883.97;5074482;28;45732;-83
2022/03/04 01:00:37;;;;;;;;;34.50;31.00;;;;;13.42;59.24;100896.78;5074554;28;45790;-79
2022/03/04 01:03:04;;;;;;;;;33.50;29.25;;;;;13.47;59.52;100907.78;5074671;28;45719;-83
2022/03/04 01:05:30;;;;;;;;;47.00;35.00;;;;;13.47;59.43;100906.94;5074283;28;45822;-79
2022/03/04 01:07:55;;;;;;;;;46.75;34.50;;;;;13.44;59.04;100900.94;5073088;28;46314;-83
2022/03/04 01:10:21;;;;;;;;;44.75;37.50;;;;;13.40;59.66;100904.78;5073893;28;46323;-85
2022/03/04 01:12:46;;;;;;;;;38.75;34.25;;;;;13.44;59.29;100905.41;5073526;28;45564;-83
2022/03/04 01:18:33;;;;;;;;;35.50;32.50;;;;;13.37;59.44;100910.28;5073369;28;46197;-83
2022/03/04 01:20:58;;;;;;;;;35.25;32.25;;;;;13.36;59.42;100915.66;5073629;28;47253;-84
2022/03/04 01:23:24;;;;;;;;;38.75;33.25;;;;;13.34;59.20;100901.78;5073780;28;45632;-84
2022/03/04 01:25:52;;;;;;;;;39.75;36.25;;;;;13.28;59.25;100897.81;5073914;28;45906;-82
2022/03/04 01:28:19;;;;;;;;;39.75;33.25;;;;;13.27;59.21;100904.06;5073179;28;45908;-81
2022/03/04 01:34:06;;;;;;;;;32.75;28.00;;;;;13.23;59.52;100910.50;5073263;28;45536;-85
2022/03/04 01:36:33;;;;;;;;;41.50;35.25;;;;;13.22;59.00;100908.84;5073963;28;45572;-85
2022/03/04 01:38:59;;;;;;;;;32.00;28.25;;;;;13.18;59.30;100902.13;5073227;28;46441;-85
2022/03/04 01:41:24;;;;;;;;;36.00;32.25;;;;;13.21;59.42;100907.19;5073387;28;45901;-85
2022/03/04 01:43:50;;;;;;;;;37.00;33.50;;;;;13.20;59.45;100905.50;5070197;28;45769;-79
2022/03/04 01:46:17;;;;;;;;;51.00;39.25;;;;;13.19;59.28;100895.91;5073814;28;45836;-80
2022/03/04 01:48:44;;;;;;;;;47.00;38.25;;;;;13.26;59.22;100912.91;5073462;28;45742;-82
2022/03/04 01:51:11;;;;;;;;;59.00;46.75;;;;;13.27;59.37;100909.34;5071202;28;46442;-82
2022/03/04 01:53:36;;;;;;;;;39.00;32.75;;;;;13.29;59.47;100909.19;5073186;28;45644;-82
2022/03/04 01:56:02;;;;;;;;;45.75;39.50;;;;;13.29;59.15;100902.13;5072988;28;45827;-81
2022/03/04 01:58:27;;;;;;;;;51.00;40.50;;;;;13.30;59.52;100893.28;5072612;28;45549;-80
2022/03/04 02:04:15;;;;;;;;;55.00;44.50;;;;;13.34;59.35;100889.47;5072523;28;46025;-78
2022/03/04 02:06:40;;;;;;;;;51.50;42.00;;;;;13.37;59.55;100883.97;5054957;28;45609;-80
2022/03/04 02:09:05;;;;;;;;;47.00;40.50;;;;;13.37;59.60;100880.50;5072710;28;46547;-83
2022/03/04 02:11:31;;;;;;;;;49.50;40.75;;;;;13.38;59.47;100880.41;5072539;28;45568;-80
2022/03/04 02:13:56;;;;;;;;;52.75;41.50;;;;;13.42;59.85;100887.09;5073528;28;45682;-79
2022/03/04 02:16:26;;;;;;;;;45.75;38.00;;;;;13.39;59.93;100879.41;5074649;28;45678;-80
2022/03/04 02:18:51;;;;;;;;;42.75;38.00;;;;;13.37;60.27;100876.09;5073176;28;46870;-82
2022/03/04 02:21:20;;;;;;;;;48.00;38.00;;;;;13.35;60.07;100872.72;5074405;28;46428;-82
2022/03/04 02:23:46;;;;;;;;;49.75;40.50;;;;;13.36;60.08;100876.19;5054630;28;45886;-81
2022/03/04 02:26:12;;;;;;;;;52.25;39.50;;;;;13.34;60.14;100873.66;5073331;28;45945;-84
2022/03/04 02:28:37;;;;;;;;;50.00;41.00;;;;;13.31;60.01;100865.19;5075850;28;45578;-77
2022/03/04 02:34:24;;;;;;;;;38.50;34.50;;;;;13.27;60.04;100871.66;5076115;28;45887;-81
2022/03/04 02:36:50;;;;;;;;;40.75;32.50;;;;;13.21;60.20;100865.06;5076709;28;45715;-81
2022/03/04 02:39:15;;;;;;;;;43.50;35.00;;;;;13.23;59.67;100871.03;5076139;28;45744;-83
2022/03/04 02:41:41;;;;;;;;;34.25;30.50;;;;;13.20;60.40;100868.66;5074798;28;46090;-83
2022/03/04 02:50:16;;;;;;;;;32.75;29.25;;;;;13.07;60.27;100880.19;5075674;28;46482;-83
2022/03/04 02:52:42;;;;;;;;;32.50;30.50;;;;;13.02;60.22;100876.13;5076136;28;46140;-79
2022/03/04 02:55:11;;;;;;;;;33.25;29.75;;;;;12.98;60.67;100882.59;5075957;28;45859;-76
2022/03/04 02:57:41;;;;;;;;;36.50;32.00;;;;;12.92;60.44;100877.81;5075728;28;45551;-79
2022/03/04 03:00:06;;;;;;;;;35.00;34.25;;;;;12.90;60.65;100882.34;5075524;28;45686;-79
2022/03/04 03:02:32;;;;;;;;;41.50;36.50;;;;;12.87;61.00;100882.56;5075742;28;46225;-76
2022/03/04 03:04:57;;;;;;;;;41.50;35.00;;;;;12.84;60.96;100885.47;5075704;28;45636;-80
2022/03/04 03:07:23;;;;;;;;;48.25;38.25;;;;;12.80;61.42;100885.78;5075401;28;45667;-83
2022/03/04 03:09:48;;;;;;;;;49.75;39.00;;;;;12.72;61.42;100882.91;5075485;28;45449;-82
2022/03/04 03:12:13;;;;;;;;;45.00;36.25;;;;;12.66;61.38;100880.75;5075181;28;46479;-80
2022/03/04 03:14:39;;;;;;;;;42.00;36.25;;;;;12.58;61.77;100878.66;5075479;28;45693;-81
2022/03/04 03:17:04;;;;;;;;;47.00;40.00;;;;;12.55;61.88;100884.19;5075626;28;45644;-84
2022/03/04 03:19:29;;;;;;;;;42.00;34.75;;;;;12.49;61.98;100889.88;5074753;28;46537;-77
2022/03/04 03:21:55;;;;;;;;;46.75;38.50;;;;;12.43;62.04;100890.34;5073005;28;46025;-81
2022/03/04 03:24:20;;;;;;;;;44.50;39.00;;;;;12.33;62.10;100886.72;5075658;28;45624;-80
2022/03/04 03:26:45;;;;;;;;;40.50;36.25;;;;;12.27;62.61;100879.28;5057467;28;45849;-80
2022/03/04 03:29:11;;;;;;;;;49.75;38.25;;;;;12.16;62.59;100873.03;5073636;28;46975;-81
2022/03/04 03:34:58;;;;;;;;;45.25;38.00;;;;;12.08;63.01;100885.91;5074974;28;45675;-78
2022/03/04 03:37:24;;;;;;;;;44.75;35.50;;;;;12.03;63.30;100888.03;5075006;28;45588;-78
2022/03/04 03:39:49;;;;;;;;;48.25;38.25;;;;;12.01;63.36;100892.53;5074406;28;45657;-79
2022/03/04 03:42:15;;;;;;;;;47.25;38.25;;;;;11.97;63.47;100887.63;5073682;28;45710;-78
2022/03/04 03:44:40;;;;;;;;;50.25;39.75;;;;;11.90;63.44;100884.59;5075363;28;45700;-79
2022/03/04 03:47:06;;;;;;;;;45.75;38.00;;;;;11.90;63.71;100886.38;5074845;28;45759;-79
2022/03/04 03:49:31;;;;;;;;;46.50;37.25;;;;;11.86;63.53;100888.41;5056434;28;48344;-78
2022/03/04 03:51:56;;;;;;;;;45.75;38.50;;;;;11.86;63.80;100892.81;5074902;28;46821;-81
2022/03/04 03:54:22;;;;;;;;;47.75;38.50;;;;;11.87;63.63;100897.13;5056454;28;45696;-77
2022/03/04 03:56:48;;;;;;;;;53.25;38.00;;;;;11.85;63.61;100896.38;5056820;28;45687;-78
2022/03/04 03:59:13;;;;;;;;;43.75;38.25;;;;;11.86;63.80;100898.91;5074805;28;46757;-79
2022/03/04 04:05:00;;;;;;;;;42.50;37.75;;;;;11.81;64.09;100903.66;5074771;28;45583;-79
2022/03/04 04:07:26;;;;;;;;;51.75;39.50;;;;;11.83;63.83;100908.78;5074733;28;45667;-76
2022/03/04 04:09:51;;;;;;;;;53.00;41.75;;;;;11.82;63.81;100907.97;5074191;28;46585;-81
2022/03/04 04:12:16;;;;;;;;;48.50;40.00;;;;;11.84;64.05;100907.81;5074821;28;46350;-76
2022/03/04 04:14:42;;;;;;;;;46.25;39.00;;;;;11.81;63.66;100889.69;5072982;28;45693;-77
2022/03/04 04:20:30;;;;;;;;;51.00;42.50;;;;;11.81;64.27;100902.81;5072148;28;45767;-77
2022/03/04 04:22:55;;;;;;;;;49.50;39.75;;;;;11.77;64.14;100892.50;5074321;28;45947;-77
2022/03/04 04:25:21;;;;;;;;;52.50;41.75;;;;;11.82;64.39;100907.13;5074340;28;45560;-77
2022/03/04 04:27:47;;;;;;;;;53.75;44.00;;;;;11.81;64.49;100900.19;5073836;28;45623;-80
2022/03/04 04:30:12;;;;;;;;;58.50;47.25;;;;;11.83;64.33;100898.25;5073900;28;46390;-77
2022/03/04 04:32:38;;;;;;;;;57.75;46.25;;;;;11.78;64.68;100896.81;5074104;28;45581;-76
2022/03/04 04:35:04;;;;;;;;;57.75;45.00;;;;;11.76;64.78;100898.72;5074553;28;45597;-79
2022/03/04 04:37:31;;;;;;;;;59.50;48.00;;;;;11.74;64.98;100902.41;5074535;28;45504;-75
2022/03/04 04:39:57;;;;;;;;;60.00;48.00;;;;;11.72;65.04;100907.72;5073910;28;46078;-75
2022/03/04 04:42:22;;;;;;;;;57.00;45.50;;;;;11.72;65.16;100912.97;5074145;28;47278;-77
2022/03/04 04:44:48;;;;;;;;;56.50;46.00;;;;;11.71;65.35;100911.28;5074011;28;45639;-80
2022/03/04 04:50:35;;;;;;;;;58.25;47.50;;;;;11.70;65.17;100912.25;5072478;28;45944;-79
2022/03/04 04:53:00;;;;;;;;;56.50;47.25;;;;;11.72;65.06;100915.59;5074172;28;45660;-76
2022/03/04 04:55:25;;;;;;;;;57.50;41.25;;;;;11.69;65.43;100913.19;5074154;28;45565;-78
2022/03/04 04:57:51;;;;;;;;;55.50;43.75;;;;;11.74;65.43;100919.00;5074256;28;45578;-80
2022/03/04 05:00:18;;;;;;;;;58.00;45.75;;;;;11.77;65.42;100907.41;5074023;28;46390;-81
2022/03/04 05:06:05;;;;;;;;;56.25;45.00;;;;;11.81;65.52;100921.19;5073959;28;45813;-77
2022/03/04 05:08:30;;;;;;;;;59.50;44.50;;;;;11.84;65.17;100920.94;5074529;28;45684;-82
2022/03/04 05:10:56;;;;;;;;;57.50;46.00;;;;;11.83;65.59;100922.72;5074144;28;46520;-81
2022/03/04 05:13:22;;;;;;;;;57.25;45.00;;;;;11.84;65.35;100926.19;5074558;28;46104;-80
2022/03/04 05:15:48;;;;;;;;;54.00;42.00;;;;;11.85;65.26;100935.75;5074967;28;45616;-81
2022/03/04 05:18:14;;;;;;;;;55.00;45.00;;;;;11.85;65.53;100931.34;5074327;28;45533;-78
2022/03/04 05:20:39;;;;;;;;;52.50;42.25;;;;;11.84;65.40;100931.44;5073296;28;46370;-75
2022/03/04 05:23:05;;;;;;;;;55.75;45.00;;;;;11.86;65.55;100933.03;5073586;28;46157;-78
2022/03/04 05:25:30;;;;;;;;;58.75;46.25;;;;;11.88;65.35;100940.78;5073715;28;45573;-80
2022/03/04 05:27:55;;;;;;;;;52.00;43.75;;;;;11.89;65.77;100938.06;5073778;28;45707;-77
2022/03/04 05:30:21;;;;;;;;;61.50;48.50;;;;;11.87;65.53;100939.97;5055191;28;48225;-76
2022/03/04 05:36:08;;;;;;;;;59.50;46.50;;;;;11.94;65.54;100942.97;5077996;28;45787;-78
2022/03/04 05:38:33;;;;;;;;;60.50;46.75;;;;;11.96;65.14;100949.81;5076297;28;45736;-81
2022/03/04 05:40:59;;;;;;;;;61.75;46.75;;;;;11.97;65.51;100948.03;5054875;28;47773;-81
2022/03/04 05:43:24;;;;;;;;;52.50;43.50;;;;;11.98;65.30;100939.19;5073226;28;46438;-78
2022/03/04 05:45:51;;;;;;;;;64.75;48.75;;;;;12.02;65.45;100948.53;5072936;28;45968;-82
2022/03/04 05:48:16;;;;;;;;;59.25;48.00;;;;;12.01;65.16;100933.72;5073173;28;45700;-77
2022/03/04 05:50:42;;;;;;;;;59.00;47.00;;;;;12.05;64.96;100948.28;5070047;28;45692;-81
2022/03/04 05:53:07;;;;;;;;;60.25;49.75;;;;;12.08;65.11;100942.84;5073410;28;46451;-82
2022/03/04 05:55:34;;;;;;;;;58.00;47.00;;;;;12.10;65.02;100933.88;5073076;28;45978;-81
2022/03/04 05:57:59;;;;;;;;;61.25;48.50;;;;;12.12;64.82;100944.28;5073174;28;45555;-80
2022/03/04 06:00:26;;;;;;;;;60.25;49.75;;;;;12.17;64.83;100943.00;5073258;28;46630;-81
2022/03/04 06:06:13;;;;;;;;;62.00;46.50;;;;;12.23;64.63;100949.59;5071723;28;45732;-80
2022/03/04 06:08:39;;;;;;;;;61.00;47.25;;;;;12.28;64.55;100944.00;5072939;28;45755;-80
2022/03/04 06:11:08;;;;;;;;;61.50;46.50;;;;;12.29;64.23;100941.28;5054578;28;45907;-77
2022/03/04 06:13:35;;;;;;;;;61.00;49.00;;;;;12.35;64.30;100951.34;5073390;28;45574;-76
2022/03/04 06:16:04;;;;;;;;;60.50;48.00;;;;;12.35;64.49;100947.88;5073335;28;45592;-79
2022/03/04 06:21:51;;;;;;;;;59.00;46.75;;;;;12.33;64.31;100953.25;5071949;28;46381;-82
2022/03/04 06:24:16;;;;;;;;;64.00;48.75;;;;;12.40;64.22;100959.75;5073436;28;46045;-80
2022/03/04 06:26:47;;;;;;;;;55.25;46.50;;;;;12.38;64.34;100961.63;5037885;28;45604;-79
2022/03/04 06:29:15;;;;;;;;;58.00;46.50;;;;;12.38;64.51;100961.63;5073611;28;45965;-81
2022/03/04 06:31:40;;;;;;;;;55.75;46.50;;;;;12.42;64.47;100964.84;5073778;28;45675;-82
2022/03/04 06:34:05;;;;;;;;;55.25;45.25;;;;;12.36;64.44;100947.75;5055636;28;47522;-79
2022/03/04 06:36:31;;;;;;;;;56.25;44.75;;;;;12.40;64.30;100956.28;5073330;28;45806;-82
2022/03/04 06:38:56;;;;;;;;;58.75;45.25;;;;;12.49;64.11;100972.19;5075027;28;45963;-84
2022/03/04 06:41:22;;;;;;;;;57.25;43.75;;;;;12.52;64.16;100973.78;5072822;28;45741;-79
2022/03/04 06:43:48;;;;;;;;;58.25;46.25;;;;;12.53;63.81;100986.78;5072793;28;45676;-83
2022/03/04 06:46:20;;;;;;;;;56.50;44.50;;;;;12.56;63.83;100991.00;5055097;28;45720;-81
2022/03/04 06:52:07;;;;;;;;;55.75;44.50;;;;;12.63;63.54;100998.28;5071687;28;45755;-83
2022/03/04 06:54:33;;;;;;;;;63.75;47.25;;;;;12.65;63.46;100997.34;5071785;28;46896;-82
2022/03/04 06:56:59;;;;;;;;;60.25;47.50;;;;;12.66;63.56;100999.03;5071659;28;45960;-81
2022/03/04 06:59:25;;;;;;;;;56.00;45.25;;;;;12.70;63.78;101001.31;5072613;28;45799;-79
2022/03/04 07:01:50;;;;;;;;;54.25;44.25;;;;;12.72;63.42;101009.94;5072009;28;46326;-79
2022/03/04 07:04:15;;;;;;;;;57.75;46.50;;;;;12.75;63.28;101011.50;5071069;28;45726;-80
2022/03/04 07:06:41;;;;;;;;;62.50;46.75;;;;;12.76;63.26;101010.53;5072032;28;45779;-75
2022/03/04 07:09:07;;;;;;;;;61.00;46.75;;;;;12.78;63.34;101006.03;5072388;28;45576;-76
2022/03/04 07:11:32;;;;;;;;;55.25;43.25;;;;;12.80;63.16;101004.94;5071245;28;47323;-74
2022/03/04 07:13:57;;;;;;;;;57.50;45.25;;;;;12.81;63.04;101003.16;5073627;28;45718;-81
2022/03/04 07:16:23;;;;;;;;;52.25;42.50;;;;;12.81;62.83;100995.25;5056387;28;45854;-79
2022/03/04 07:22:10;;;;;;;;;56.25;45.00;;;;;12.88;62.88;101007.84;5075259;28;45720;-79
2022/03/04 07:24:35;;;;;;;;;54.50;44.25;;;;;12.92;62.54;101019.81;5076317;28;46023;-78
2022/03/04 07:27:01;;;;;;;;;60.25;45.50;;;;;12.93;62.98;101023.28;5057434;28;45842;-78
2022/03/04 07:29:27;;;;;;;;;56.50;46.00;;;;;12.95;62.54;101024.88;5076348;28;45611;-77
2022/03/04 07:31:55;;;;;;;;;57.00;45.50;;;;;12.95;62.48;101022.25;5075687;28;46555;-79
2022/03/04 07:37:43;;;;;;;;;59.75;46.75;;;;;13.02;62.72;101025.22;5075596;28;45842;-76
2022/03/04 07:40:15;;;;;;;;;57.75;46.75;;;;;13.03;62.61;101022.50;5076225;28;45521;-77
2022/03/04 07:42:41;;;;;;;;;60.75;46.75;;;;;13.07;62.59;101023.09;5075827;28;46638;-77
2022/03/04 07:45:08;;;;;;;;;57.00;45.75;;;;;13.11;62.13;101023.72;5057258;28;46120;-78
2022/03/04 07:47:35;;;;;;;;;55.25;43.00;;;;;13.12;62.37;101036.75;5075757;28;45605;-78
2022/03/04 07:50:00;;;;;;;;;55.75;45.00;;;;;13.11;62.54;101021.94;5075944;28;45801;-79
2022/03/04 07:52:31;;;;;;;;;54.00;44.00;;;;;13.19;62.06;101034.53;5075711;28;45551;-78
2022/03/04 07:55:00;;;;;;;;;60.00;46.25;;;;;13.15;62.09;101027.81;5075828;28;46221;-79
2022/03/04 07:57:25;;;;;;;;;56.50;44.75;;;;;13.17;62.50;101039.88;5057789;28;45699;-76
2022/03/04 07:59:51;;;;;;;;;54.25;44.50;;;;;13.13;62.63;101040.25;5075472;28;45665;-79
2022/03/04 08:02:16;;;;;;;;;59.25;45.50;;;;;13.06;62.78;101052.16;5056796;28;47515;-79
2022/03/04 08:08:03;;;;;;;;;62.75;47.75;;;;;12.85;62.87;101042.25;5075051;28;45737;-78
2022/03/04 08:10:30;;;;;;;;;64.75;48.00;;;;;12.80;63.20;101044.38;5075683;28;45557;-79
2022/03/04 08:12:55;;;;;;;;;61.00;47.50;;;;;12.75;62.96;101051.78;5075052;28;46868;-79
2022/03/04 08:15:21;;;;;;;;;58.50;46.50;;;;;12.67;63.08;101040.16;5075218;28;47442;-79
2022/03/04 08:17:46;;;;;;;;;66.50;50.00;;;;;12.67;63.21;101053.28;5075528;28;45548;-79
2022/03/04 08:20:12;;;;;;;;;60.25;47.25;;;;;12.66;63.40;101062.13;5075685;28;45750;-80
2022/03/04 08:22:38;;;;;;;;;58.25;48.50;;;;;12.61;63.23;101070.34;5074854;28;46460;-79
2022/03/04 08:25:05;;;;;;;;;58.75;47.75;;;;;12.56;63.64;101069.84;5075157;28;45454;-76
2022/03/04 08:27:30;;;;;;;;;61.25;47.00;;;;;12.54;63.48;101061.22;5075212;28;45660;-75
2022/03/04 08:29:55;;;;;;;;;63.75;49.25;;;;;12.54;63.35;101075.19;5075227;28;45787;-75
2022/03/04 08:32:23;;;;;;;;;61.75;49.50;;;;;12.52;63.67;101071.81;5074816;28;46903;-78
2022/03/04 08:38:10;;;;;;;;;61.25;49.25;;;;;12.60;63.96;101076.53;5074708;28;45727;-78
2022/03/04 08:40:35;;;;;;;;;64.75;50.75;;;;;12.65;63.63;101078.84;5074740;28;45628;-76
2022/03/04 08:43:00;;;;;;;;;63.75;49.50;;;;;12.63;63.55;101071.09;5074455;28;46322;-79
2022/03/04 08:45:26;;;;;;;;;61.00;49.75;;;;;12.63;63.49;101064.00;5074719;28;46335;-77
2022/03/04 08:47:52;;;;;;;;;67.25;52.50;;;;;12.70;63.32;101077.56;5074490;28;45781;-78
2022/03/04 08:53:39;;;;;;;;;63.00;49.75;;;;;12.74;63.29;101078.19;5074330;28;45541;-76
2022/03/04 08:56:05;;;;;;;;;66.00;51.25;;;;;12.78;63.15;101080.50;5074992;28;45789;-78
2022/03/04 08:58:30;;;;;;;;;63.50;50.50;;;;;12.81;63.24;101088.13;5074294;28;45679;-79
2022/03/04 09:00:56;;;;;;;;;63.00;49.50;;;;;12.83;63.05;101088.88;5074966;28;45666;-73
2022/03/04 09:03:21;;;;;;;;;62.25;49.75;;;;;12.83;63.28;101081.00;5074494;28;45738;-76
2022/03/04 09:05:47;;;;;;;;;68.00;52.00;;;;;12.83;62.88;101073.09;5074598;28;46042;-77
2022/03/04 09:08:13;;;;;;;;;64.75;50.00;;;;;12.87;63.24;101082.44;5056222;28;46076;-78
2022/03/04 09:10:38;;;;;;;;;67.25;51.50;;;;;12.88;63.18;101085.91;5074726;28;45785;-76
2022/03/04 09:13:06;;;;;;;;;64.50;51.75;;;;;12.93;63.24;101087.25;5074399;28;47292;-78
2022/03/04 09:15:32;;;;;;;;;65.50;52.00;;;;;12.93;62.90;101086.41;5074453;28;46014;-79
2022/03/04 09:17:58;;;;;;;;;67.00;53.75;;;;;12.93;62.55;101071.47;5073852;28;45544;-78
2022/03/04 09:23:45;;;;;;;;;70.00;52.50;;;;;13.05;63.00;101080.25;5072068;28;45840;-79
2022/03/04 09:26:11;;;;;;;;;68.50;53.00;;;;;13.07;62.58;101090.66;5074258;28;45603;-79
2022/03/04 09:28:37;;;;;;;;;67.50;52.00;;;;;13.09;62.67;101080.84;5073717;28;45505;-80
2022/03/04 09:31:03;;;;;;;;;68.00;52.50;;;;;13.15;62.60;101086.53;5071468;28;45580;-76
2022/03/04 09:33:28;;;;;;;;;66.50;51.00;;;;;13.21;62.72;101087.88;5073997;28;45539;-79
2022/03/04 09:35:54;;;;;;;;;66.00;49.25;;;;;13.22;62.28;101084.31;5070944;28;45643;-79
2022/03/04 09:38:19;;;;;;;;;70.50;52.25;;;;;13.27;62.14;101090.91;5073538;28;45612;-77
2022/03/04 09:40:47;;;;;;;;;65.75;52.75;;;;;13.31;62.62;101087.06;5074382;28;45557;-81
2022/03/04 09:43:15;;;;;;;;;66.75;52.00;;;;;13.35;62.24;101085.88;5073974;28;46580;-81
2022/03/04 09:45:40;;;;;;;;;66.25;51.00;;;;;13.39;62.10;101089.13;5073821;28;46148;-80
2022/03/04 09:48:06;;;;;;;;;70.50;54.75;;;;;13.40;61.64;101090.81;5073932;28;45698;-81
2022/03/04 09:53:53;;;;;;;;;64.25;51.00;;;;;13.49;61.84;101089.28;5073714;28;45978;-81
2022/03/04 09:56:20;;;;;;;;;63.75;52.50;;;;;13.55;61.45;101094.09;5055094;28;46975;-79
2022/03/04 09:58:47;;;;;;;;;65.25;51.25;;;;;13.56;61.88;101091.31;5073618;28;45655;-78
2022/03/04 10:01:14;;;;;;;;;70.25;54.00;;;;;13.60;61.77;101091.94;5074096;28;45705;-80
2022/03/04 10:03:39;;;;;;;;;63.75;52.00;;;;;13.63;61.28;101095.19;5073756;28;46880;-79
2022/03/04 10:06:07;;;;;;;;;70.00;52.33;;;;;13.65;61.50;101095.91;5073466;28;47038;-79
2022/03/04 10:08:40;;;;;;;;;65.75;52.25;;;;;13.69;61.31;101096.50;5054776;28;45645;-77
2022/03/04 10:11:07;;;;;;;;;70.50;53.25;;;;;13.70;61.17;101091.13;5073392;28;45564;-79
2022/03/04 10:13:50;;;;;;;;;69.00;53.75;;;;;13.77;61.31;101094.09;5073769;28;45577;-76
2022/03/04 10:16:26;;;;;;;;;65.75;52.00;;;;;13.82;60.71;101099.88;5073183;28;46159;-78
2022/03/04 10:19:11;;;;;;;;;65.00;50.50;;;;;13.86;60.65;101091.63;5073488;28;45685;-77
2022/03/04 10:22:06;;;;;;;;;65.25;49.25;;;;;13.91;60.55;101090.44;5055101;28;45611;-75
2022/03/04 10:24:39;;;;;;;;;71.00;51.50;;;;;13.91;60.68;101078.09;5070231;28;45969;-78
2022/03/04 10:27:12;;;;;;;;;69.50;54.00;;;;;13.99;60.70;101091.50;5073096;28;46207;-79
2022/03/04 10:29:46;;;;;;;;;68.00;52.25;;;;;14.04;60.35;101102.53;5071616;28;45988;-75
2022/03/04 10:32:13;;;;;;;;;68.75;53.25;;;;;14.04;60.20;101105.16;5073741;28;45659;-77
2022/03/04 10:34:52;;;;;;;;;64.25;50.75;;;;;14.04;59.94;101096.41;5073080;28;47528;-76
2022/03/04 10:37:41;;;;;;;;;66.50;50.75;;;;;14.01;60.34;101091.41;5072710;28;46308;-80
2022/03/04 10:40:13;;;;;;;;;68.00;51.50;;;;;14.00;59.98;101092.34;5073409;28;45848;-78
2022/03/04 10:43:03;;;;;;;;;64.75;50.00;;;;;13.97;59.85;101096.06;5054808;28;45628;-75
2022/03/04 10:45:30;;;;;;;;;67.50;51.75;;;;;13.96;59.64;101104.94;5073121;28;45440;-78
2022/03/04 10:48:10;;;;;;;;;65.75;51.00;;;;;13.93;60.17;101107.78;5074278;28;46250;-79
2022/03/04 10:50:37;;;;;;;;;65.00;50.25;;;;;13.92;60.45;101100.03;5076065;28;45920;-79
2022/03/04 10:53:08;;;;;;;;;68.75;52.25;;;;;13.87;60.57;101101.19;5058413;28;45730;-80
2022/03/04 10:55:48;;;;;;;;;65.25;51.25;;;;;13.85;60.47;101095.22;5076805;28;45835;-79
2022/03/04 10:58:43;;;;;;;;;67.00;52.25;;;;;13.86;60.06;101110.06;5076627;28;46033;-77
2022/03/04 11:01:12;;;;;;;;;67.50;51.75;;;;;13.86;60.06;101090.78;5072586;28;45634;-76
2022/03/04 11:03:40;;;;;;;;;63.25;50.75;;;;;13.92;60.17;101092.13;5076792;28;45609;-76
2022/03/04 11:06:06;;;;;;;;;69.50;53.50;;;;;13.96;59.96;101091.75;5076585;28;45410;-76
2022/03/04 11:08:31;;;;;;;;;67.25;49.75;;;;;14.01;60.21;101094.03;5076199;28;46424;-78
2022/03/04 11:10:58;;;;;;;;;67.75;52.00;;;;;14.04;60.15;101101.69;5076698;28;45608;-74
2022/03/04 11:13:24;;;;;;;;;69.50;53.50;;;;;14.05;59.89;101098.94;5076144;28;45889;-74
2022/03/04 11:15:51;;;;;;;;;70.00;52.00;;;;;14.08;60.18;101100.50;5076086;28;46569;-78
2022/03/04 11:18:18;;;;;;;;;62.25;50.00;;;;;14.09;59.95;101100.38;5075750;28;46230;-76
2022/03/04 11:20:48;;;;;;;;;68.25;53.25;;;;;14.10;59.83;101085.41;5076206;28;45830;-78
2022/03/04 11:23:23;;;;;;;;;70.50;52.00;;;;;14.18;59.85;101093.56;5076269;28;45573;-76
2022/03/04 11:25:56;;;;;;;;;67.75;51.50;;;;;14.20;59.96;101097.72;5075943;28;46809;-77
2022/03/04 11:28:28;;;;;;;;;68.00;52.25;;;;;14.20;59.55;101100.38;5075540;28;46354;-75
2022/03/04 11:31:00;;;;;;;;;71.00;54.25;;;;;14.22;59.45;101095.00;5075437;28;45724;-77
2022/03/04 11:33:31;;;;;;;;;68.75;54.25;;;;;14.24;59.50;101087.81;5076155;28;45506;-76
2022/03/04 11:35:59;;;;;;;;;68.75;52.00;;;;;14.30;59.59;101096.06;5057162;28;47291;-77
2022/03/04 11:38:49;;;;;;;;;68.00;53.00;;;;;14.36;59.30;101086.00;5075956;28;46239;-76
2022/03/04 11:41:19;;;;;;;;;61.00;48.25;;;;;14.38;59.36;101087.59;5075468;28;45537;-75
2022/03/04 11:43:45;;;;;;;;;65.50;48.75;;;;;14.35;58.81;101084.31;5076157;28;45447;-76
2022/03/04 11:46:22;;;;;;;;;69.25;52.00;;;;;14.33;58.97;101083.59;5075830;28;45697;-77
2022/03/04 11:49:07;;;;;;;;;64.75;51.50;;;;;14.35;58.80;101087.81;5075718;28;46107;-78
2022/03/04 11:51:33;;;;;;;;;67.50;52.00;;;;;14.39;59.07;101078.72;5074090;28;45643;-74
2022/03/04 11:54:22;;;;;;;;;72.00;54.25;;;;;14.49;59.09;101084.09;5076006;28;45743;-76
2022/03/04 11:56:52;;;;;;;;;70.50;52.50;;;;;14.55;59.00;101075.69;4973329;28;45911;-77
2022/03/04 11:59:20;;;;;;;;;64.00;51.50;;;;;14.60;58.80;101077.00;4973118;28;45762;-77
2022/03/04 12:01:46;;;;;;;;;70.50;55.00;;;;;14.68;58.20;101079.84;4957194;28;45584;-77
2022/03/04 12:04:13;;;;;;;;;61.75;47.00;;;;;14.72;58.30;101076.97;4973264;28;45709;-78
2022/03/04 12:06:39;;;;;;;;;69.00;55.00;;;;;14.74;57.79;101075.88;4956612;28;47050;-75
2022/03/04 12:09:31;;;;;;;;;69.00;51.75;;;;;14.79;57.80;101075.53;4973429;28;46112;-77
2022/03/04 12:12:21;;;;;;;;;68.25;53.25;;;;;14.81;57.76;101084.97;4973466;28;45909;-76
2022/03/04 12:15:15;;;;;;;;;70.50;53.00;;;;;14.83;57.83;101079.59;4973415;28;45840;-78
2022/03/04 12:18:28;;;;;;;;;69.50;52.00;;;;;14.83;57.52;101080.44;4972883;28;47894;-76
2022/03/04 12:24:28;;;;;;;;;64.50;50.00;;;;;14.85;57.51;101080.28;4914909;28;45591;-76
2022/03/04 12:26:54;;;;;;;;;68.75;51.75;;;;;14.84;57.71;101071.56;4915043;28;45777;-77
2022/03/04 12:29:19;;;;;;;;;71.75;52.50;;;;;14.87;57.45;101075.72;4898732;28;47524;-77
2022/03/04 12:31:45;;;;;;;;;64.00;50.75;;;;;14.88;57.60;101070.34;4898885;28;46478;-75
2022/03/04 12:34:20;;;;;;;;;64.00;51.00;;;;;14.95;57.34;101070.69;4978295;28;45676;-78
2022/03/04 12:40:08;;;;;;;;;67.25;51.75;;;;;15.00;57.35;101068.50;5011851;28;45685;-75